Time;durP1;ratioP1;P1;durP2;ratioP2;P2;SDS_P1;SDS_P2;PMS_P1;PMS_P2;Temp;Humidity;BMP_temperature;BMP_pressure;BME280_temperature;BME280_humidity;BME280_pressure;Samples;Min_cycle;Max_cycle;Signal;HPM_P1;HPM_P2
2022/05/04 00:00:07;;;;;;;11.10;2.97;;;10.20;14.60;;;;;;5046754;28;20673;-55
2022/05/04 00:02:34;;;;;;;5.37;3.10;;;10.20;1.00;;;;;;5065876;28;20278;-54
2022/05/04 00:05:01;;;;;;;6.60;2.90;;;10.30;14.10;;;;;;5063193;28;20213;-54
2022/05/04 00:07:27;;;;;;;6.33;3.07;;;10.40;1.00;;;;;;5063375;28;20280;-55
2022/05/04 00:09:55;;;;;;;4.80;2.80;;;10.30;1.00;;;;;;5069389;28;20265;-55
2022/05/04 00:12:23;;;;;;;6.50;2.40;;;10.40;1.00;;;;;;5069764;28;20286;-55
2022/05/04 00:14:50;;;;;;;5.47;2.90;;;10.40;1.00;;;;;;5061839;28;20195;-53
2022/05/04 00:17:17;;;;;;;8.57;2.83;;;10.40;1.00;;;;;;5068568;28;20199;-55
2022/05/04 00:19:44;;;;;;;7.67;3.00;;;10.50;1.00;;;;;;5063281;28;20228;-56
2022/05/04 00:22:15;;;;;;;6.73;3.43;;;10.50;1.00;;;;;;5073814;28;20223;-55
2022/05/04 00:24:42;;;;;;;8.07;3.20;;;10.50;1.00;;;;;;5069369;28;20690;-55
2022/05/04 00:27:09;;;;;;;4.83;3.10;;;10.30;1.00;;;;;;5070192;28;20636;-55
2022/05/04 00:29:35;;;;;;;10.47;3.70;;;10.10;1.00;;;;;;5067962;28;20645;-55
2022/05/04 00:32:02;;;;;;;4.33;2.93;;;10.30;99.90;;;;;;5063335;28;20295;-55
2022/05/04 00:34:29;;;;;;;6.40;3.07;;;10.30;1.00;;;;;;5067537;28;20305;-56
2022/05/04 00:36:59;;;;;;;7.90;3.50;;;10.30;1.00;;;;;;5070031;28;20234;-55
2022/05/04 00:39:26;;;;;;;12.30;3.23;;;10.20;64.90;;;;;;5063252;28;20673;-54
2022/05/04 00:41:53;;;;;;;6.97;2.77;;;10.30;83.00;;;;;;5069237;28;20260;-54
2022/05/04 00:44:19;;;;;;;8.27;3.03;;;10.50;1.00;;;;;;5066798;28;20233;-54
2022/05/04 00:46:46;;;;;;;7.30;3.00;;;10.50;1.00;;;;;;5068962;28;20206;-54
2022/05/04 00:49:13;;;;;;;10.37;3.63;;;10.50;1.00;;;;;;5066445;28;20671;-57
2022/05/04 00:51:40;;;;;;;8.27;3.27;;;10.60;1.00;;;;;;5061752;28;20643;-55
2022/05/04 00:54:07;;;;;;;7.00;3.00;;;10.50;1.00;;;;;;5063102;28;20292;-55
2022/05/04 00:56:34;;;;;;;6.33;2.97;;;10.60;1.00;;;;;;5062602;28;20244;-54
2022/05/04 00:59:01;;;;;;;5.47;3.10;;;10.50;99.90;;;;;;5057928;28;20667;-55
2022/05/04 01:01:29;;;;;;;6.23;2.50;;;10.50;99.90;;;;;;5069271;28;20206;-55
2022/05/04 01:03:59;;;;;;;8.07;3.03;;;10.50;99.90;;;;;;5067642;28;20671;-57
2022/05/04 01:06:26;;;;;;;6.07;3.10;;;10.40;99.90;;;;;;5066828;28;20241;-54
2022/05/04 01:08:54;;;;;;;11.43;2.90;;;10.40;99.90;;;;;;5060488;28;20241;-55
2022/05/04 01:11:21;;;;;;;10.43;3.53;;;10.30;1.00;;;;;;5066188;28;20263;-56
2022/05/04 01:14:17;;;;;;;8.97;3.37;;;10.30;99.90;;;;;;5067338;28;20214;-55
2022/05/04 01:16:48;;;;;;;7.47;3.33;;;10.20;1.00;;;;;;5046029;28;20687;-54
2022/05/04 01:19:16;;;;;;;7.20;2.90;;;10.30;99.90;;;;;;5066622;28;20251;-55
2022/05/04 01:21:43;;;;;;;4.47;3.27;;;10.30;99.90;;;;;;5058986;28;20234;-55
2022/05/04 01:24:10;;;;;;;6.33;2.77;;;10.30;1.00;;;;;;5069002;28;20214;-55
2022/05/04 01:26:37;;;;;;;10.77;3.20;;;10.30;99.90;;;;;;5066545;28;20245;-55
2022/05/04 01:29:04;;;;;;;6.73;2.97;;;10.20;99.90;;;;;;5068012;28;20723;-55
2022/05/04 01:31:31;;;;;;;9.57;3.70;;;10.20;99.90;;;;;;5068823;28;20211;-56
2022/05/04 01:33:59;;;;;;;8.27;3.40;;;10.10;99.90;;;;;;5067189;28;20229;-55
2022/05/04 01:36:26;;;;;;;5.83;3.17;;;10.20;99.90;;;;;;5069210;28;20206;-54
2022/05/04 01:38:53;;;;;;;8.40;3.23;;;10.30;1.00;;;;;;5064858;28;20654;-56
2022/05/04 01:44:05;;;;;;;7.90;3.07;;;10.10;99.90;;;;;;5057323;28;20812;-56
2022/05/04 01:46:32;;;;;;;10.37;2.90;;;10.00;99.90;;;;;;5069320;28;20601;-55
2022/05/04 01:48:59;;;;;;;5.40;3.40;;;9.90;99.90;;;;;;5066623;28;20347;-55
2022/05/04 01:51:26;;;;;;;6.87;3.27;;;10.10;1.00;;;;;;5053579;28;20217;-55
2022/05/04 01:53:52;;;;;;;8.53;2.93;;;10.10;99.90;;;;;;5066040;28;20279;-56
2022/05/04 01:56:19;;;;;;;10.63;2.83;;;10.10;1.00;;;;;;5062998;28;20260;-54
2022/05/04 01:58:46;;;;;;;6.83;3.03;;;10.10;1.00;;;;;;5066068;28;20322;-57
2022/05/04 02:01:13;;;;;;;11.70;3.07;;;10.20;99.90;;;;;;5067593;28;20577;-55
2022/05/04 02:03:40;;;;;;;9.10;2.90;;;10.10;99.90;;;;;;5068931;28;20292;-58
2022/05/04 02:06:07;;;;;;;14.80;3.00;;;10.20;99.90;;;;;;5070109;28;20243;-55
2022/05/04 02:08:35;;;;;;;9.27;2.97;;;10.30;99.90;;;;;;5063558;28;20213;-55
2022/05/04 02:11:02;;;;;;;8.50;2.80;;;10.20;99.90;;;;;;5068560;28;20659;-54
2022/05/04 02:13:29;;;;;;;7.70;3.00;;;10.00;1.00;;;;;;5071658;28;20275;-54
2022/05/04 02:15:55;;;;;;;7.17;3.07;;;10.00;1.00;;;;;;5068557;28;20292;-54
2022/05/04 02:18:22;;;;;;;7.07;3.17;;;10.00;1.00;;;;;;5070569;28;20647;-55
2022/05/04 02:20:49;;;;;;;8.53;3.27;;;10.00;1.00;;;;;;5062555;28;20591;-54
2022/05/04 02:23:16;;;;;;;6.90;3.50;;;9.90;1.00;;;;;;5078743;28;20226;-55
2022/05/04 02:25:42;;;;;;;6.70;2.97;;;9.90;1.00;;;;;;5071425;28;20247;-54
2022/05/04 02:28:09;;;;;;;8.60;3.00;;;9.90;1.00;;;;;;5070584;28;20243;-53
2022/05/04 02:30:36;;;;;;;6.20;3.03;;;9.80;1.00;;;;;;5064732;28;20281;-54
2022/05/04 02:33:03;;;;;;;8.77;2.47;;;9.90;1.00;;;;;;5067520;28;20773;-54
2022/05/04 02:38:15;;;;;;;8.10;3.23;;;9.80;1.00;;;;;;5067288;28;20687;-54
2022/05/04 02:40:42;;;;;;;7.53;3.03;;;9.80;1.00;;;;;;5071958;28;20302;-54
2022/05/04 02:43:09;;;;;;;10.93;3.30;;;9.70;99.90;;;;;;5069291;28;20268;-54
2022/05/04 02:45:35;;;;;;;8.07;3.60;;;9.60;99.90;;;;;;5070431;28;20632;-56
2022/05/04 02:48:03;;;;;;;7.70;2.73;;;9.60;96.00;;;;;;5063108;28;20666;-54
2022/05/04 02:50:29;;;;;;;7.73;3.13;;;9.70;99.90;;;;;;5069635;28;20307;-55
2022/05/04 02:52:56;;;;;;;14.27;3.40;;;9.70;1.00;;;;;;5049596;28;20214;-55
2022/05/04 02:55:23;;;;;;;7.37;2.80;;;9.70;99.90;;;;;;5063171;28;20239;-55
2022/05/04 02:57:50;;;;;;;13.43;3.60;;;9.60;99.90;;;;;;5070178;28;20535;-55
2022/05/04 03:00:17;;;;;;;6.03;3.27;;;9.60;99.90;;;;;;5060058;28;20251;-54
2022/05/04 03:02:45;;;;;;;9.73;3.20;;;9.70;99.90;;;;;;5063795;28;20645;-54
2022/05/04 03:05:14;;;;;;;11.00;3.50;;;9.70;46.00;;;;;;5068614;28;20322;-54
2022/05/04 03:07:41;;;;;;;11.07;3.70;;;9.50;99.90;;;;;;5063342;28;20208;-54
2022/05/04 03:10:09;;;;;;;7.30;2.83;;;9.60;99.90;;;;;;5059155;28;20541;-55
2022/05/04 03:12:36;;;;;;;8.13;2.97;;;9.70;99.90;;;;;;5067538;28;20657;-56
2022/05/04 03:15:04;;;;;;;5.00;3.10;;;9.50;99.90;;;;;;5065756;28;20214;-56
2022/05/04 03:17:31;;;;;;;6.53;3.00;;;9.60;1.00;;;;;;5066326;28;20197;-56
2022/05/04 03:19:58;;;;;;;9.97;3.13;;;9.60;99.90;;;;;;5068519;28;20612;-56
2022/05/04 03:22:25;;;;;;;5.97;3.37;;;9.60;99.90;;;;;;5075672;28;20229;-57
2022/05/04 03:24:52;;;;;;;10.63;3.70;;;9.60;1.00;;;;;;5070629;28;20229;-55
2022/05/04 03:27:19;;;;;;;9.70;2.83;;;9.50;1.00;;;;;;5069598;28;20237;-57
2022/05/04 03:29:46;;;;;;;9.97;3.07;;;9.50;1.00;;;;;;5064972;28;20256;-55
2022/05/04 03:32:13;;;;;;;7.70;3.53;;;9.60;1.00;;;;;;5065824;28;20732;-55
2022/05/04 03:34:40;;;;;;;6.77;3.37;;;9.60;1.00;;;;;;5058672;28;20301;-55
2022/05/04 03:37:06;;;;;;;8.73;3.13;;;9.70;99.90;;;;;;5067477;28;20245;-55
2022/05/04 03:39:33;;;;;;;9.30;3.60;;;9.70;99.90;;;;;;5070478;28;20226;-55
2022/05/04 03:42:00;;;;;;;9.43;3.40;;;9.60;1.00;;;;;;5064279;28;20889;-53
2022/05/04 03:44:27;;;;;;;8.70;3.30;;;9.60;1.00;;;;;;5069458;28;20210;-56
2022/05/04 03:46:54;;;;;;;7.90;2.77;;;9.60;1.00;;;;;;5068713;28;20277;-54
2022/05/04 03:49:23;;;;;;;11.57;3.00;;;9.50;1.00;;;;;;5068278;28;20283;-55
2022/05/04 03:51:51;;;;;;;10.40;3.30;;;9.50;4.70;;;;;;5065435;28;20287;-55
2022/05/04 03:54:18;;;;;;;11.67;4.37;;;9.40;1.00;;;;;;5066995;28;20705;-55
2022/05/04 03:56:45;;;;;;;8.63;3.20;;;9.50;1.00;;;;;;5068915;28;20532;-54
2022/05/04 03:59:12;;;;;;;6.70;3.23;;;9.50;1.00;;;;;;5069916;28;20217;-55
2022/05/04 04:01:39;;;;;;;9.83;3.20;;;9.50;1.00;;;;;;5066620;28;20642;-55
2022/05/04 04:04:07;;;;;;;6.50;3.00;;;9.30;1.00;;;;;;5067513;28;20214;-56
2022/05/04 04:06:34;;;;;;;6.47;3.27;;;9.40;1.00;;;;;;5040307;28;20533;-56
2022/05/04 04:09:02;;;;;;;6.03;3.10;;;9.40;1.00;;;;;;5062004;28;20301;-54
2022/05/04 04:11:29;;;;;;;10.20;3.27;;;9.40;1.00;;;;;;5069949;28;20564;-56
2022/05/04 04:13:57;;;;;;;6.57;2.73;;;9.40;1.00;;;;;;5068275;28;20215;-56
2022/05/04 04:16:25;;;;;;;11.73;5.07;;;9.40;1.00;;;;;;5040683;28;20203;-54
2022/05/04 04:18:52;;;;;;;7.30;3.73;;;9.20;28.50;;;;;;5063199;28;20213;-55
2022/05/04 04:24:04;;;;;;;12.47;3.30;;;9.10;99.90;;;;;;5065863;28;20237;-57
2022/05/04 04:26:32;;;;;;;7.07;3.13;;;9.10;99.90;;;;;;5062919;28;20570;-55
2022/05/04 04:28:59;;;;;;;9.43;3.37;;;9.00;99.90;;;;;;5068807;28;20208;-55
2022/05/04 04:31:25;;;;;;;9.67;3.00;;;9.00;1.00;;;;;;5068290;28;20287;-55
2022/05/04 04:33:52;;;;;;;7.40;3.37;;;9.00;1.00;;;;;;5067087;28;20216;-55
2022/05/04 04:36:19;;;;;;;5.80;3.47;;;9.10;1.00;;;;;;5069389;28;20290;-54
2022/05/04 04:38:46;;;;;;;7.70;3.20;;;9.00;99.90;;;;;;5069085;28;20897;-55
2022/05/04 04:41:13;;;;;;;9.73;3.20;;;9.10;1.00;;;;;;5068882;28;20194;-57
2022/05/04 04:43:39;;;;;;;8.40;3.10;;;9.10;1.00;;;;;;5057971;28;20295;-55
2022/05/04 04:46:06;;;;;;;9.93;3.63;;;9.00;1.00;;;;;;5068135;28;20230;-55
2022/05/04 04:48:33;;;;;;;8.90;3.37;;;9.00;1.00;;;;;;5066956;28;20266;-54
2022/05/04 04:51:00;;;;;;;10.27;4.07;;;8.90;1.00;;;;;;5067563;28;20665;-55
2022/05/04 04:53:27;;;;;;;5.13;3.20;;;9.00;1.00;;;;;;5069083;28;20741;-56
2022/05/04 04:55:54;;;;;;;15.60;3.50;;;9.10;1.00;;;;;;5069577;28;20235;-58
2022/05/04 04:58:21;;;;;;;10.07;3.67;;;9.10;1.00;;;;;;5066130;28;20301;-58
2022/05/04 05:00:48;;;;;;;7.20;3.47;;;9.10;1.00;;;;;;5062209;28;20229;-54
2022/05/04 05:03:15;;;;;;;8.10;3.70;;;9.10;1.00;;;;;;5061043;28;20231;-55
2022/05/04 05:05:43;;;;;;;6.03;3.70;;;9.10;1.00;;;;;;5061245;28;20704;-55
2022/05/04 05:08:11;;;;;;;9.27;3.60;;;9.10;1.00;;;;;;5065707;28;20315;-55
2022/05/04 05:10:38;;;;;;;7.87;3.27;;;9.10;99.90;;;;;;5068917;28;20230;-54
2022/05/04 05:13:06;;;;;;;10.13;3.77;;;9.10;1.00;;;;;;5066716;28;20289;-55
2022/05/04 05:18:24;;;;;;;10.13;3.97;;;9.10;1.00;;;;;;5064313;28;20206;-55
2022/05/04 05:20:51;;;;;;;9.10;3.40;;;9.30;1.00;;;;;;5059283;28;20244;-56
2022/05/04 05:23:23;;;;;;;9.77;4.07;;;9.40;1.00;;;;;;5068377;28;20246;-54
2022/05/04 05:25:50;;;;;;;6.30;3.40;;;9.30;99.90;;;;;;5045821;28;20243;-54
2022/05/04 05:28:17;;;;;;;6.70;3.23;;;9.30;99.90;;;;;;5066898;28;20214;-56
2022/05/04 05:30:44;;;;;;;9.90;4.27;;;9.30;99.90;;;;;;5058258;28;20284;-55
2022/05/04 05:33:11;;;;;;;6.97;3.13;;;9.30;99.90;;;;;;5049261;28;20200;-54
2022/05/04 05:35:38;;;;;;;12.70;3.80;;;9.30;53.70;;;;;;5049367;28;20631;-54
2022/05/04 05:38:05;;;;;;;9.67;3.40;;;9.40;1.00;;;;;;5069791;28;20238;-54
2022/05/04 05:40:32;;;;;;;9.50;3.60;;;9.40;1.00;;;;;;5060988;28;20258;-56
2022/05/04 05:42:59;;;;;;;8.13;3.50;;;9.50;1.00;;;;;;5071870;28;20259;-55
2022/05/04 05:45:25;;;;;;;9.10;3.40;;;9.50;1.00;;;;;;5063525;28;20796;-55
2022/05/04 05:47:52;;;;;;;8.93;3.57;;;9.60;1.00;;;;;;5071555;28;20561;-57
2022/05/04 05:50:19;;;;;;;6.70;3.10;;;9.50;1.00;;;;;;5045937;28;20279;-54
2022/05/04 05:52:46;;;;;;;8.43;3.10;;;9.50;1.00;;;;;;5070044;28;20218;-54
2022/05/04 05:55:13;;;;;;;11.53;3.30;;;9.50;1.00;;;;;;5072689;28;20298;-54
2022/05/04 05:57:40;;;;;;;6.90;3.20;;;9.60;99.90;;;;;;5063705;28;20196;-54
2022/05/04 06:00:07;;;;;;;8.57;3.00;;;9.60;99.90;;;;;;5061053;28;20194;-53
2022/05/04 06:02:34;;;;;;;9.67;3.60;;;9.70;99.90;;;;;;5069527;28;20209;-54
2022/05/04 06:05:01;;;;;;;8.27;3.30;;;9.80;99.90;;;;;;5069286;28;20240;-54
2022/05/04 06:07:28;;;;;;;5.90;3.30;;;9.80;99.90;;;;;;5071816;28;20291;-54
2022/05/04 06:09:55;;;;;;;12.67;3.43;;;9.90;99.90;;;;;;5070398;28;20211;-54
2022/05/04 06:12:22;;;;;;;8.03;3.70;;;9.90;72.50;;;;;;5071346;28;20213;-54
2022/05/04 06:14:49;;;;;;;6.97;3.20;;;9.90;55.50;;;;;;5070105;28;20310;-55
2022/05/04 06:17:16;;;;;;;9.47;3.50;;;10.10;1.00;;;;;;5070009;28;20197;-54
2022/05/04 06:19:42;;;;;;;7.13;2.77;;;10.00;1.00;;;;;;5059609;28;20221;-54
2022/05/04 06:22:09;;;;;;;8.70;3.40;;;9.90;1.00;;;;;;5068408;28;20225;-57
2022/05/04 06:24:36;;;;;;;11.00;2.93;;;10.10;1.00;;;;;;5071430;28;20232;-55
2022/05/04 06:27:03;;;;;;;7.67;3.77;;;10.30;1.00;;;;;;5039676;28;20578;-54
2022/05/04 06:35:06;;;;;;;9.70;3.57;;;10.30;99.90;;;;;;5061681;28;20255;-55
2022/05/04 06:37:33;;;;;;;8.13;2.70;;;10.50;99.90;;;;;;5071774;28;20743;-56
2022/05/04 06:40:00;;;;;;;8.20;2.67;;;10.80;99.90;;;;;;5071411;28;20290;-54
2022/05/04 06:42:27;;;;;;;8.17;3.50;;;10.80;1.00;;;;;;5070272;28;20238;-54
2022/05/04 06:45:03;;;;;;;6.10;2.80;;;11.00;99.90;;;;;;5069310;28;20202;-54
2022/05/04 06:47:30;;;;;;;8.43;3.03;;;11.30;1.00;;;;;;5071647;28;20264;-54
2022/05/04 06:49:57;;;;;;;6.90;3.37;;;11.50;1.00;;;;;;5068316;28;20378;-54
2022/05/04 06:52:24;;;;;;;6.37;2.70;;;11.40;1.00;;;;;;5062934;28;20218;-56
2022/05/04 06:54:52;;;;;;;5.80;2.80;;;11.70;1.00;;;;;;5070657;28;20233;-55
2022/05/04 06:57:20;;;;;;;11.33;3.10;;;12.10;1.00;;;;;;5060256;28;20280;-55
2022/05/04 06:59:48;;;;;;;7.87;2.70;;;12.30;99.90;;;;;;5069008;28;20715;-54
2022/05/04 07:02:16;;;;;;;6.77;2.70;;;12.30;91.00;;;;;;5071363;28;20225;-54
2022/05/04 07:04:43;;;;;;;9.37;3.63;;;12.30;99.90;;;;;;5068803;28;20207;-56
2022/05/04 07:07:10;;;;;;;6.17;2.80;;;12.50;99.90;;;;;;5071250;28;20202;-55
2022/05/04 07:09:37;;;;;;;7.03;2.93;;;12.40;1.00;;;;;;5069089;28;20263;-54
2022/05/04 07:12:05;;;;;;;8.20;3.03;;;12.30;99.90;;;;;;5061363;28;20348;-56
2022/05/04 07:14:31;;;;;;;5.03;2.67;;;13.00;99.90;;;;;;5064459;28;20264;-55
2022/05/04 07:16:59;;;;;;;5.60;3.23;;;13.20;1.00;;;;;;5069845;28;20192;-54
2022/05/04 07:19:26;;;;;;;7.43;3.10;;;13.20;1.00;;;;;;5064731;28;20600;-57
2022/05/04 07:21:52;;;;;;;4.53;2.97;;;13.10;1.00;;;;;;5069713;28;20669;-55
2022/05/04 07:24:19;;;;;;;8.60;3.30;;;13.00;1.00;;;;;;5067095;28;20245;-55
2022/05/04 07:26:46;;;;;;;6.67;2.90;;;13.40;1.00;;;;;;5067519;28;20702;-55
2022/05/04 07:29:13;;;;;;;8.13;3.30;;;13.00;1.00;;;;;;5068997;28;20192;-55
2022/05/04 07:31:44;;;;;;;6.47;3.07;;;13.50;1.00;;;;;;5065447;28;20796;-55
2022/05/04 07:34:14;;;;;;;8.43;3.47;;;13.60;1.00;;;;;;5061853;28;20249;-55
2022/05/04 07:36:41;;;;;;;4.63;3.10;;;13.80;1.00;;;;;;5065274;28;20658;-54
2022/05/04 07:39:08;;;;;;;6.00;3.20;;;13.60;1.00;;;;;;5064501;28;20196;-54
2022/05/04 07:44:20;;;;;;;9.50;3.33;;;13.20;1.00;;;;;;5064052;28;20238;-56
2022/05/04 07:46:48;;;;;;;7.43;3.17;;;13.00;1.00;;;;;;5065208;28;20253;-55
2022/05/04 07:49:15;;;;;;;5.67;3.30;;;13.40;1.00;;;;;;5059788;28;20393;-54
2022/05/04 07:51:42;;;;;;;9.57;3.60;;;13.10;1.00;;;;;;5066016;28;20194;-54
2022/05/04 07:54:09;;;;;;;6.67;3.70;;;13.30;1.00;;;;;;5063118;28;20201;-53
2022/05/04 07:56:36;;;;;;;8.13;3.83;;;13.40;1.00;;;;;;5066611;28;20195;-54
2022/05/04 07:59:03;;;;;;;5.67;4.00;;;13.80;1.00;;;;;;5066544;28;20215;-57
2022/05/04 08:04:16;;;;;;;6.03;3.67;;;14.30;1.00;;;;;;5056536;28;20280;-54
2022/05/04 08:06:44;;;;;;;5.50;3.23;;;14.20;1.00;;;;;;5063410;28;20200;-54
2022/05/04 08:09:11;;;;;;;7.40;3.50;;;14.50;1.00;;;;;;5065841;28;20322;-54
2022/05/04 08:11:38;;;;;;;4.43;3.27;;;14.40;1.00;;;;;;5065753;28;20205;-53
2022/05/04 08:14:04;;;;;;;8.83;3.80;;;14.20;1.00;;;;;;5065470;28;20290;-54
2022/05/04 08:16:31;;;;;;;12.13;4.27;;;13.70;1.00;;;;;;5066630;28;20604;-54
2022/05/04 08:19:00;;;;;;;9.93;3.90;;;13.90;1.00;;;;;;5063997;28;20201;-54
2022/05/04 08:21:27;;;;;;;7.80;4.10;;;14.30;1.00;;;;;;5065693;28;20238;-54
2022/05/04 08:23:54;;;;;;;6.27;4.20;;;14.80;1.00;;;;;;5064499;28;20204;-54
2022/05/04 08:26:22;;;;;;;7.23;4.27;;;15.00;1.00;;;;;;5064485;28;21993;-54
2022/05/04 08:28:50;;;;;;;11.07;4.47;;;14.70;1.00;;;;;;5059577;28;20197;-54
2022/05/04 08:31:18;;;;;;;11.07;5.43;;;15.10;1.00;;;;;;5063741;28;20278;-54
2022/05/04 08:33:45;;;;;;;6.27;4.93;;;15.10;1.00;;;;;;5059635;28;20827;-54
2022/05/04 08:36:12;;;;;;;11.57;4.50;;;14.90;1.00;;;;;;5063968;28;20604;-54
2022/05/04 08:38:39;;;;;;;9.63;6.10;;;15.10;1.00;;;;;;5065893;28;20269;-53
2022/05/04 08:41:07;;;;;;;9.00;4.70;;;14.90;1.00;;;;;;5062729;28;20221;-55
2022/05/04 08:43:35;;;;;;;9.63;5.07;;;15.10;1.00;;;;;;5061188;28;21984;-54
2022/05/04 08:46:03;;;;;;;7.93;4.73;;;15.30;1.00;;;;;;5063193;28;20214;-54
2022/05/04 08:48:35;;;;;;;6.80;4.70;;;15.20;99.90;;;;;;5060247;28;20465;-53
2022/05/04 08:51:05;;;;;;;11.30;4.80;;;15.10;1.00;;;;;;5059842;28;20198;-54
2022/05/04 08:53:32;;;;;;;9.03;4.70;;;15.50;1.00;;;;;;5068950;28;20661;-54
2022/05/04 08:55:59;;;;;;;9.83;5.17;;;16.10;99.90;;;;;;5063294;28;20267;-54
2022/05/04 08:58:39;;;;;;;9.83;5.33;;;16.10;99.90;;;;;;5068381;28;20276;-54
2022/05/04 09:01:06;;;;;;;9.87;5.30;;;15.30;1.00;;;;;;5057176;28;20206;-55
2022/05/04 09:03:33;;;;;;;9.93;4.93;;;15.90;99.90;;;;;;5064817;28;20569;-54
2022/05/04 09:06:00;;;;;;;10.13;4.97;;;16.00;1.00;;;;;;5045897;28;20237;-53
2022/05/04 09:09:11;;;;;;;11.93;5.60;;;15.00;1.00;;;;;;5039465;28;20217;-54
2022/05/04 09:11:45;;;;;;;8.47;4.70;;;15.70;1.00;;;;;;5063789;28;20198;-54
2022/05/04 09:14:20;;;;;;;7.10;5.03;;;15.20;99.90;;;;;;5066444;28;20297;-54
2022/05/04 09:16:47;;;;;;;9.07;4.67;;;15.30;1.00;;;;;;5067717;28;20209;-54
2022/05/04 09:19:17;;;;;;;9.93;4.87;;;15.60;1.00;;;;;;5063973;28;20328;-54
2022/05/04 09:21:47;;;;;;;7.83;4.57;;;15.80;99.90;;;;;;5065311;28;20225;-54
2022/05/04 09:24:15;;;;;;;12.30;5.80;;;15.80;99.90;;;;;;5066320;28;21718;-54
2022/05/04 09:26:44;;;;;;;9.93;5.33;;;16.30;99.90;;;;;;5069296;28;20663;-53
2022/05/04 09:29:13;;;;;;;6.87;5.00;;;16.20;99.90;;;;;;5066343;28;20614;-54
2022/05/04 09:31:45;;;;;;;10.47;5.63;;;16.10;99.90;;;;;;5067331;28;20792;-54
2022/05/04 09:34:12;;;;;;;7.43;5.27;;;16.20;99.90;;;;;;5066855;28;20194;-53
2022/05/04 09:45:13;;;;;;;9.17;4.73;;;16.00;99.90;;;;;;5063653;28;20216;-54
2022/05/04 09:47:41;;;;;;;8.77;5.23;;;15.90;99.90;;;;;;5067603;28;20292;-54
2022/05/04 09:50:10;;;;;;;7.53;5.50;;;15.50;99.90;;;;;;5059748;28;20616;-54
2022/05/04 09:52:46;;;;;;;10.93;5.33;;;16.00;99.90;;;;;;5070121;28;20258;-54
2022/05/04 09:55:20;;;;;;;11.90;6.43;;;15.60;99.90;;;;;;5058527;28;20215;-56
2022/05/04 09:57:47;;;;;;;10.70;4.80;;;16.00;99.90;;;;;;5066679;28;20205;-54
2022/05/04 10:00:21;;;;;;;8.37;5.10;;;16.00;99.90;;;;;;5062430;28;20227;-54
2022/05/04 10:02:48;;;;;;;8.50;4.93;;;15.80;99.90;;;;;;5067458;28;20201;-52
2022/05/04 10:05:16;;;;;;;10.57;5.17;;;15.40;99.90;;;;;;5067397;28;20847;-53
2022/05/04 10:07:44;;;;;;;9.20;5.20;;;16.00;99.90;;;;;;5066146;28;20561;-54
2022/05/04 10:10:15;;;;;;;10.03;5.03;;;15.80;99.90;;;;;;5065155;28;20193;-55
2022/05/04 10:12:43;;;;;;;11.27;5.37;;;16.10;99.90;;;;;;5052452;28;20217;-54
2022/05/04 10:15:11;;;;;;;10.07;6.23;;;16.40;99.90;;;;;;5067353;28;20687;-55
2022/05/04 10:18:05;;;;;;;8.77;4.73;;;15.70;99.90;;;;;;5069000;28;20206;-55
2022/05/04 10:20:41;;;;;;;7.93;4.97;;;15.50;99.90;;;;;;5066128;28;20248;-55
2022/05/04 10:23:08;;;;;;;9.40;4.93;;;15.70;99.90;;;;;;5060974;28;20238;-52
2022/05/04 10:25:35;;;;;;;10.90;4.97;;;15.60;99.90;;;;;;5067997;28;20658;-53
2022/05/04 10:28:13;;;;;;;8.43;5.27;;;15.80;99.90;;;;;;5068031;28;20609;-53
2022/05/04 10:31:07;;;;;;;8.53;5.07;;;15.70;99.90;;;;;;5061843;28;20217;-54
2022/05/04 10:33:35;;;;;;;9.80;5.30;;;16.00;99.90;;;;;;5060407;28;20204;-54
2022/05/04 10:36:30;;;;;;;6.53;4.80;;;16.00;99.90;;;;;;5062219;28;20222;-53
2022/05/04 10:38:59;;;;;;;7.80;4.53;;;16.10;99.90;;;;;;5062824;28;20207;-53
2022/05/04 10:41:36;;;;;;;10.70;5.30;;;16.30;99.90;;;;;;5068391;28;20289;-52
2022/05/04 10:44:08;;;;;;;6.63;4.87;;;15.80;99.90;;;;;;5064535;28;20255;-54
2022/05/04 10:46:40;;;;;;;8.37;5.20;;;16.20;99.90;;;;;;5049299;28;20257;-54
2022/05/04 10:49:10;;;;;;;8.03;4.80;;;16.00;99.90;;;;;;5066925;28;20202;-53
2022/05/04 10:51:42;;;;;;;6.30;4.70;;;15.90;99.90;;;;;;5065246;28;20954;-54
2022/05/04 10:54:12;;;;;;;8.77;5.17;;;16.50;99.90;;;;;;5069600;28;20640;-55
2022/05/04 10:56:45;;;;;;;10.83;4.80;;;16.50;99.90;;;;;;5068696;28;20685;-56
2022/05/04 10:59:32;;;;;;;7.03;4.60;;;16.40;99.90;;;;;;5061721;28;20216;-55
2022/05/04 11:02:04;;;;;;;8.43;5.33;;;16.50;99.90;;;;;;5066249;28;20214;-55
2022/05/04 11:04:33;;;;;;;7.87;5.50;;;16.40;99.90;;;;;;5066897;28;20413;-54
2022/05/04 11:07:07;;;;;;;7.70;5.30;;;16.70;99.90;;;;;;5067008;28;20203;-54
2022/05/04 11:09:40;;;;;;;10.20;5.43;;;16.60;99.90;;;;;;5060933;28;20623;-54
2022/05/04 11:12:10;;;;;;;7.80;5.67;;;17.00;99.90;;;;;;5064394;28;20427;-54
2022/05/04 11:14:37;;;;;;;11.13;5.13;;;16.50;99.90;;;;;;5059996;28;20226;-54
2022/05/04 11:17:14;;;;;;;9.13;5.13;;;16.80;99.90;;;;;;5066826;28;20601;-54
2022/05/04 11:19:48;;;;;;;8.63;4.90;;;17.40;99.90;;;;;;5056726;28;20191;-54
2022/05/04 11:22:17;;;;;;;6.80;5.03;;;17.90;99.90;;;;;;5067279;28;20221;-54
2022/05/04 11:25:05;;;;;;;11.20;4.97;;;17.40;99.90;;;;;;5064434;28;20200;-54
2022/05/04 11:27:32;;;;;;;8.00;5.30;;;17.70;99.90;;;;;;5066303;28;20618;-54
2022/05/04 11:30:01;;;;;;;9.17;5.17;;;17.80;88.00;;;;;;5056137;28;20691;-53
2022/05/04 11:32:32;;;;;;;9.27;5.20;;;18.30;91.30;;;;;;5042420;28;20207;-54
2022/05/04 11:35:00;;;;;;;8.53;4.73;;;18.40;1.00;;;;;;5054751;28;20286;-53
2022/05/04 11:37:31;;;;;;;6.77;5.17;;;18.60;1.00;;;;;;5067941;28;20225;-55
2022/05/04 11:40:10;;;;;;;8.93;5.17;;;18.60;1.00;;;;;;5066270;28;20518;-54
2022/05/04 11:42:37;;;;;;;12.03;5.10;;;17.90;1.00;;;;;;5043207;28;20241;-53
2022/05/04 11:45:04;;;;;;;8.00;5.00;;;17.90;1.00;;;;;;5067751;28;20576;-56
2022/05/04 11:47:31;;;;;;;11.17;5.20;;;18.20;1.00;;;;;;5064967;28;20650;-55
2022/05/04 11:49:58;;;;;;;10.70;4.77;;;17.70;1.00;;;;;;5063807;28;20290;-55
2022/05/04 11:52:25;;;;;;;9.57;4.83;;;18.20;1.00;;;;;;5061537;28;20249;-54
2022/05/04 11:54:52;;;;;;;7.47;4.40;;;19.00;1.00;;;;;;5068034;28;20191;-55
2022/05/04 11:57:20;;;;;;;7.07;5.03;;;19.40;1.00;;;;;;5057179;28;20241;-53
2022/05/04 11:59:50;;;;;;;9.93;4.87;;;20.00;1.00;;;;;;5069316;28;20646;-54
2022/05/04 12:02:18;;;;;;;10.17;5.07;;;18.90;1.00;;;;;;5068761;28;20291;-53
2022/05/04 12:04:47;;;;;;;8.10;4.63;;;19.10;1.00;;;;;;5067651;28;20210;-54
2022/05/04 12:07:14;;;;;;;9.87;5.73;;;19.00;1.00;;;;;;5069460;28;20199;-55
2022/05/04 12:09:41;;;;;;;8.43;5.60;;;19.30;1.00;;;;;;5064626;28;20241;-54
2022/05/04 12:12:08;;;;;;;8.33;5.53;;;19.50;1.00;;;;;;5067720;28;20280;-54
2022/05/04 12:14:35;;;;;;;8.90;4.77;;;19.40;1.00;;;;;;5064699;28;20299;-53
2022/05/04 12:17:03;;;;;;;8.70;4.83;;;19.50;1.00;;;;;;5069200;28;20256;-54
2022/05/04 12:19:30;;;;;;;8.37;4.77;;;19.30;1.00;;;;;;5058389;28;20305;-55
2022/05/04 12:21:57;;;;;;;12.97;6.17;;;18.40;1.00;;;;;;5069320;28;20733;-54
2022/05/04 12:24:25;;;;;;;6.87;4.60;;;18.60;1.00;;;;;;5069547;28;20628;-55
2022/05/04 12:26:55;;;;;;;7.30;5.07;;;19.10;1.00;;;;;;5066765;28;20315;-54
2022/05/04 12:34:56;;;;;;;8.70;5.13;;;19.20;1.00;;;;;;5051638;28;20256;-54
2022/05/04 12:37:29;;;;;;;10.23;5.13;;;19.70;1.00;;;;;;5064063;28;20678;-54
2022/05/04 12:39:56;;;;;;;7.33;5.00;;;19.10;1.00;;;;;;5065225;28;20256;-54
2022/05/04 12:42:24;;;;;;;11.20;5.97;;;19.70;1.00;;;;;;5069431;28;20235;-55
2022/05/04 12:44:53;;;;;;;10.33;6.80;;;19.50;1.00;;;;;;5068981;28;20536;-54
2022/05/04 12:47:21;;;;;;;10.03;5.37;;;19.80;1.00;;;;;;5058692;28;20747;-54
2022/05/04 12:49:49;;;;;;;12.23;5.97;;;20.00;1.00;;;;;;5062794;28;20204;-54
2022/05/04 12:52:17;;;;;;;9.83;6.43;;;20.10;1.00;;;;;;5066024;28;20290;-54
2022/05/04 12:54:45;;;;;;;11.60;5.17;;;20.00;1.00;;;;;;5066098;28;20235;-54
2022/05/04 12:57:11;;;;;;;10.03;5.70;;;20.10;1.00;;;;;;5063559;28;20683;-54
2022/05/04 12:59:39;;;;;;;9.80;5.70;;;19.40;1.00;;;;;;5068415;28;20196;-55
2022/05/04 13:02:10;;;;;;;7.90;5.20;;;19.00;1.00;;;;;;5059222;28;20203;-55
2022/05/04 13:04:38;;;;;;;8.63;5.53;;;19.10;1.00;;;;;;5066383;28;20199;-55
2022/05/04 13:07:05;;;;;;;11.90;5.50;;;19.60;1.00;;;;;;5065156;28;20227;-53
2022/05/04 13:09:32;;;;;;;8.77;5.90;;;19.50;1.00;;;;;;5063791;28;20310;-55
2022/05/04 13:11:59;;;;;;;11.00;5.90;;;19.00;1.00;;;;;;5061710;28;20199;-56
2022/05/04 13:14:26;;;;;;;8.57;6.10;;;19.40;1.00;;;;;;5061323;28;20485;-54
2022/05/04 13:16:53;;;;;;;9.17;6.30;;;19.50;1.00;;;;;;5061508;28;20586;-55
2022/05/04 13:19:20;;;;;;;9.97;6.03;;;19.50;1.00;;;;;;5063282;28;20857;-54
2022/05/04 13:21:47;;;;;;;11.37;5.40;;;19.20;1.00;;;;;;5059141;28;20589;-53
2022/05/04 13:24:14;;;;;;;10.43;5.63;;;19.10;1.00;;;;;;5067410;28;20291;-54
2022/05/04 13:26:40;;;;;;;10.73;5.43;;;19.60;1.00;;;;;;5064554;28;20199;-53
2022/05/04 13:29:08;;;;;;;8.53;5.37;;;20.00;1.00;;;;;;5041157;28;20203;-53
2022/05/04 13:31:35;;;;;;;10.23;5.40;;;20.10;1.00;;;;;;5065414;28;20235;-54
2022/05/04 13:34:02;;;;;;;8.70;5.40;;;19.50;1.00;;;;;;5056573;28;20687;-56